Terminal Aerodrome Forecast
Issued by NWS

Home | Current Version | Previous Version | Text Only | Print | Product List | Glossary On
Versions: 1 2 3 4 5 6 7 8 9 10 11 12 13 14 15 16 17 18 19 20 21 22 23 24
000
FTUS45 KSLC 311720
TAFEVW
TAF
KEVW 311720Z 3118/0118 35005KT P6SM SCT200
     FM311900 31009G16KT P6SM FEW100 SCT200
     FM010100 34007KT P6SM SCT200
     FM010500 12005KT P6SM SCT200=

USA.gov is the U.S. government's official web portal to all federal, state and local government web resources and services.